Time;durP1;ratioP1;P1;durP2;ratioP2;P2;SDS_P1;SDS_P2;PMS_P1;PMS_P2;Temp;Humidity;BMP_temperature;BMP_pressure;BME280_temperature;BME280_humidity;BME280_pressure;Samples;Min_cycle;Max_cycle;Signal;HPM_P1;HPM_P2
2023/01/15 00:02:11;;;;;;;8.70;2.42;;;6.70;99.90;;;;;;4956429;28;20033;-73
2023/01/15 00:04:37;;;;;;;11.77;2.15;;;6.80;99.90;;;;;;4974618;28;20034;-73
2023/01/15 00:07:03;;;;;;;10.93;2.00;;;6.70;99.90;;;;;;4985439;28;20045;-72
2023/01/15 00:09:32;;;;;;;11.48;2.63;;;6.70;99.90;;;;;;4952825;28;20049;-73
2023/01/15 00:11:58;;;;;;;10.07;2.42;;;6.70;99.90;;;;;;4971361;28;20563;-73
2023/01/15 00:14:23;;;;;;;11.60;2.58;;;6.70;99.90;;;;;;4948844;28;20045;-74
2023/01/15 00:16:51;;;;;;;11.98;2.50;;;6.70;99.90;;;;;;4981705;28;20062;-74
2023/01/15 00:19:17;;;;;;;8.75;2.70;;;6.70;99.90;;;;;;4953567;28;20055;-74
2023/01/15 00:21:42;;;;;;;18.13;3.00;;;6.80;99.90;;;;;;4951259;28;20046;-74
2023/01/15 00:29:37;;;;;;;12.77;2.72;;;6.70;99.90;;;;;;4983896;28;20057;-72
2023/01/15 00:32:05;;;;;;;12.73;2.47;;;6.80;99.90;;;;;;4970628;28;20042;-73
2023/01/15 00:34:33;;;;;;;19.38;4.43;;;6.70;99.90;;;;;;4968761;28;20109;-72
2023/01/15 00:36:59;;;;;;;10.80;3.03;;;6.70;99.90;;;;;;4985580;28;20053;-72
2023/01/15 00:39:25;;;;;;;10.48;2.78;;;6.70;99.90;;;;;;4988209;28;20564;-72
2023/01/15 00:41:52;;;;;;;18.70;2.97;;;6.70;99.90;;;;;;4984778;28;20080;-73
2023/01/15 00:44:18;;;;;;;12.43;2.58;;;6.70;99.90;;;;;;4972034;28;20076;-72
2023/01/15 00:46:44;;;;;;;9.38;2.42;;;6.80;99.90;;;;;;4972264;28;20073;-74
2023/01/15 00:49:10;;;;;;;13.82;2.58;;;6.80;99.90;;;;;;4952532;28;20139;-73
2023/01/15 00:51:36;;;;;;;9.13;2.00;;;6.70;99.90;;;;;;4985503;28;20050;-73
2023/01/15 00:54:05;;;;;;;11.32;3.03;;;6.80;99.90;;;;;;4985744;28;20048;-73
2023/01/15 00:56:30;;;;;;;14.15;2.38;;;6.80;99.90;;;;;;4987011;28;20050;-72
2023/01/15 00:58:56;;;;;;;12.00;2.58;;;6.80;99.90;;;;;;4970570;28;20052;-74
2023/01/15 01:01:22;;;;;;;14.98;2.28;;;6.80;99.90;;;;;;4986219;28;20049;-73
2023/01/15 01:03:51;;;;;;;10.32;2.35;;;6.90;99.90;;;;;;4972074;28;20077;-72
2023/01/15 01:06:18;;;;;;;13.73;2.40;;;6.90;99.90;;;;;;4967468;28;20037;-73
2023/01/15 01:08:47;;;;;;;17.05;3.20;;;6.80;99.90;;;;;;4971327;28;20615;-72
2023/01/15 01:11:16;;;;;;;14.65;2.80;;;6.90;99.90;;;;;;4968214;28;20517;-73
2023/01/15 01:13:43;;;;;;;11.77;2.40;;;6.90;99.90;;;;;;4971700;28;20049;-72
2023/01/15 01:16:29;;;;;;;11.93;2.20;;;6.80;99.90;;;;;;4971543;28;20505;-73
2023/01/15 01:18:56;;;;;;;14.05;2.50;;;6.90;99.90;;;;;;4977006;28;20061;-73
2023/01/15 01:21:21;;;;;;;12.50;2.70;;;6.90;99.90;;;;;;4967639;28;20081;-73
2023/01/15 01:23:47;;;;;;;12.25;2.47;;;6.90;99.90;;;;;;4965827;28;20086;-73
2023/01/15 01:26:13;;;;;;;12.32;2.60;;;6.90;99.90;;;;;;4967563;28;20053;-72
2023/01/15 01:28:40;;;;;;;13.00;2.65;;;6.90;99.90;;;;;;4981596;28;20042;-72
2023/01/15 01:31:07;;;;;;;10.70;2.70;;;6.90;99.90;;;;;;4950406;28;20082;-73
2023/01/15 01:33:33;;;;;;;9.20;2.03;;;6.90;99.90;;;;;;4965843;28;20058;-72
2023/01/15 01:35:59;;;;;;;14.35;3.47;;;6.90;99.90;;;;;;4980378;28;20077;-72
2023/01/15 01:38:25;;;;;;;15.18;3.00;;;6.90;99.90;;;;;;4965674;28;20525;-72
2023/01/15 01:40:51;;;;;;;11.85;2.72;;;6.80;99.90;;;;;;4981991;28;20062;-72
2023/01/15 01:43:20;;;;;;;13.18;2.85;;;6.80;99.90;;;;;;4948689;28;20057;-72
2023/01/15 01:45:46;;;;;;;12.82;2.92;;;6.80;99.90;;;;;;4965826;28;20564;-72
2023/01/15 01:48:14;;;;;;;14.00;2.53;;;6.80;99.90;;;;;;4981456;28;20034;-73
2023/01/15 01:50:40;;;;;;;12.93;2.22;;;6.80;99.90;;;;;;4983608;28;20041;-72
2023/01/15 01:53:13;;;;;;;12.65;2.72;;;6.80;99.90;;;;;;4950490;28;20065;-73
2023/01/15 01:55:39;;;;;;;10.25;2.20;;;6.80;99.90;;;;;;4966418;28;20125;-72
2023/01/15 01:58:08;;;;;;;12.75;2.70;;;6.80;99.90;;;;;;4987626;28;20641;-71
2023/01/15 02:00:37;;;;;;;12.77;2.58;;;6.80;99.90;;;;;;4984985;28;20041;-73
2023/01/15 02:03:06;;;;;;;9.98;2.22;;;6.80;99.90;;;;;;4984735;28;20046;-73
2023/01/15 02:05:37;;;;;;;14.25;3.15;;;6.80;99.90;;;;;;4986986;28;20602;-73
2023/01/15 02:08:03;;;;;;;12.60;2.67;;;6.80;99.90;;;;;;4983116;28;20077;-74
2023/01/15 02:10:29;;;;;;;11.63;2.40;;;6.80;99.90;;;;;;4967248;28;20114;-73
2023/01/15 02:13:18;;;;;;;13.30;2.92;;;6.80;99.90;;;;;;4984017;28;20062;-72
2023/01/15 02:15:50;;;;;;;11.93;3.22;;;6.80;99.90;;;;;;4981296;28;20077;-73
2023/01/15 02:18:29;;;;;;;14.00;3.22;;;6.80;99.90;;;;;;4967289;28;20042;-72
2023/01/15 02:21:03;;;;;;;14.80;2.60;;;6.80;99.90;;;;;;4980492;28;20058;-72
2023/01/15 02:23:32;;;;;;;14.82;2.60;;;6.80;99.90;;;;;;4968445;28;20137;-72
2023/01/15 02:26:22;;;;;;;14.90;2.50;;;6.80;99.90;;;;;;4967116;28;20050;-71
2023/01/15 02:28:50;;;;;;;;;;;6.80;99.90;;;;;;4982310;28;20057;-71
2023/01/15 02:31:28;;;;;;;9.48;2.15;;;6.80;99.90;;;;;;4981218;28;19925;-71
2023/01/15 02:34:02;;;;;;;13.80;2.67;;;6.70;99.90;;;;;;4978757;28;20159;-71
2023/01/15 02:36:32;;;;;;;11.52;3.38;;;6.80;99.90;;;;;;4980743;28;20060;-71
2023/01/15 02:39:01;;;;;;;17.20;2.40;;;6.70;99.90;;;;;;4982378;28;20058;-71
2023/01/15 02:41:32;;;;;;;12.70;2.22;;;6.80;99.90;;;;;;4966119;28;20108;-73
2023/01/15 02:44:01;;;;;;;13.80;2.97;;;6.70;99.90;;;;;;4967200;28;20065;-73
2023/01/15 02:46:32;;;;;;;17.33;3.30;;;6.80;99.90;;;;;;4966680;28;20046;-72
2023/01/15 02:49:01;;;;;;;13.02;3.47;;;6.80;99.90;;;;;;4967326;28;20112;-74
2023/01/15 02:51:37;;;;;;;12.85;2.75;;;6.80;99.90;;;;;;4982126;28;20149;-72
2023/01/15 02:54:13;;;;;;;11.52;2.78;;;6.80;99.90;;;;;;4966439;28;20839;-70
2023/01/15 02:56:40;;;;;;;10.48;2.72;;;6.70;99.90;;;;;;4964309;28;20047;-70
2023/01/15 02:59:11;;;;;;;13.93;2.67;;;6.70;99.90;;;;;;4981880;28;20571;-72
2023/01/15 03:01:44;;;;;;;13.15;2.85;;;6.70;99.90;;;;;;4981411;28;20042;-72
2023/01/15 03:04:28;;;;;;;14.23;2.78;;;6.70;99.90;;;;;;4967550;28;20042;-72
2023/01/15 03:07:08;;;;;;;12.23;3.00;;;6.70;99.90;;;;;;4968137;28;20133;-72
2023/01/15 03:09:35;;;;;;;16.63;3.88;;;6.70;99.90;;;;;;4958674;28;20141;-73
2023/01/15 03:12:33;;;;;;;12.15;3.03;;;6.70;99.90;;;;;;4963965;28;20038;-70
2023/01/15 03:15:10;;;;;;;12.52;2.40;;;6.70;99.90;;;;;;4966074;28;20058;-71
2023/01/15 03:17:54;;;;;;;14.75;3.00;;;6.60;99.90;;;;;;4963797;28;20077;-70
2023/01/15 03:20:24;;;;;;;18.73;3.85;;;6.70;99.90;;;;;;4982241;28;20129;-72
2023/01/15 03:22:55;;;;;;;13.05;2.90;;;6.70;99.90;;;;;;4966557;28;20058;-72
2023/01/15 03:25:32;;;;;;;16.02;3.10;;;6.60;99.90;;;;;;4980318;28;20053;-72
2023/01/15 03:28:01;;;;;;;17.98;3.55;;;6.60;99.90;;;;;;4966619;28;20047;-72
2023/01/15 03:30:28;;;;;;;15.52;3.38;;;6.60;99.90;;;;;;4983300;28;20106;-72
2023/01/15 03:32:54;;;;;;;16.88;3.28;;;6.60;99.90;;;;;;4984107;28;20058;-71
2023/01/15 03:35:38;;;;;;;13.45;2.90;;;6.60;99.90;;;;;;4982970;28;20050;-70
2023/01/15 03:38:07;;;;;;;13.63;3.13;;;6.60;99.90;;;;;;4984471;28;20089;-74
2023/01/15 03:40:37;;;;;;;17.65;2.80;;;6.60;99.90;;;;;;4963911;28;20046;-73
2023/01/15 03:45:57;;;;;;;12.50;2.90;;;6.60;99.90;;;;;;4981442;28;20529;-75
2023/01/15 03:48:29;;;;;;;15.30;2.78;;;6.60;99.90;;;;;;4983092;28;20088;-73
2023/01/15 03:51:04;;;;;;;15.77;2.75;;;6.60;99.90;;;;;;4983377;28;20057;-74
2023/01/15 03:53:39;;;;;;;13.20;3.00;;;6.60;99.90;;;;;;4974950;28;20051;-73
2023/01/15 03:56:23;;;;;;;15.32;3.30;;;6.60;99.90;;;;;;4967038;28;20118;-73
2023/01/15 03:59:41;;;;;;;10.73;2.72;;;6.50;99.90;;;;;;4967418;28;20228;-72
2023/01/15 04:02:10;;;;;;;12.40;2.80;;;6.60;99.90;;;;;;4932967;28;20461;-74
2023/01/15 04:04:38;;;;;;;13.95;2.47;;;6.50;99.90;;;;;;4968190;28;20118;-71
2023/01/15 04:07:03;;;;;;;11.55;2.85;;;6.50;99.90;;;;;;4987181;28;20053;-72
2023/01/15 04:09:29;;;;;;;14.45;3.65;;;6.50;99.90;;;;;;4936371;28;20434;-71
2023/01/15 04:11:59;;;;;;;15.18;3.15;;;6.50;99.90;;;;;;4965220;28;20046;-71
2023/01/15 04:14:29;;;;;;;12.63;2.42;;;6.50;99.90;;;;;;4960843;28;20038;-72
2023/01/15 04:16:55;;;;;;;13.65;2.30;;;6.50;99.90;;;;;;4995906;28;20107;-71
2023/01/15 04:19:21;;;;;;;14.73;3.60;;;6.50;99.90;;;;;;4959728;28;20120;-72
2023/01/15 04:21:47;;;;;;;13.93;2.80;;;6.50;99.90;;;;;;4963996;28;20401;-72
2023/01/15 04:24:12;;;;;;;16.52;2.95;;;6.50;99.90;;;;;;4958593;28;20084;-72
2023/01/15 04:26:38;;;;;;;11.65;2.70;;;6.50;99.90;;;;;;4962788;28;20046;-71
2023/01/15 04:29:04;;;;;;;13.27;2.53;;;6.50;99.90;;;;;;4935987;28;20471;-72
2023/01/15 04:31:32;;;;;;;10.27;2.72;;;6.50;99.90;;;;;;4963376;28;20594;-74
2023/01/15 04:33:58;;;;;;;10.85;2.75;;;6.50;99.90;;;;;;4969011;28;20174;-73
2023/01/15 04:36:24;;;;;;;17.30;3.05;;;6.50;99.90;;;;;;4983724;28;20054;-73
2023/01/15 04:38:50;;;;;;;14.63;2.97;;;6.40;99.90;;;;;;4985221;28;20058;-71
2023/01/15 04:44:06;;;;;;;13.35;2.95;;;6.40;99.90;;;;;;4985906;28;20094;-71
2023/01/15 04:46:43;;;;;;;12.38;3.05;;;6.40;99.90;;;;;;4983214;28;20125;-71
2023/01/15 04:49:16;;;;;;;12.57;2.80;;;6.40;99.90;;;;;;4969130;28;20133;-71
2023/01/15 04:51:42;;;;;;;12.00;2.40;;;6.40;99.90;;;;;;4982946;28;20046;-71
2023/01/15 04:54:10;;;;;;;10.50;2.50;;;6.30;99.90;;;;;;4984033;28;20445;-72
2023/01/15 04:56:42;;;;;;;12.43;2.30;;;6.40;99.90;;;;;;4983355;28;20218;-71
2023/01/15 04:59:08;;;;;;;10.30;2.75;;;6.40;99.90;;;;;;4997161;28;20043;-71
2023/01/15 05:01:35;;;;;;;13.30;2.63;;;6.40;99.90;;;;;;4967010;28;20050;-71
2023/01/15 05:04:01;;;;;;;17.60;3.45;;;6.30;99.90;;;;;;4959871;28;20061;-71
2023/01/15 05:06:33;;;;;;;13.98;3.40;;;6.30;99.90;;;;;;4952545;28;20041;-73
2023/01/15 05:09:00;;;;;;;10.63;2.30;;;6.30;99.90;;;;;;4968785;28;20051;-72
2023/01/15 05:11:27;;;;;;;12.90;2.90;;;6.30;99.90;;;;;;4983135;28;20239;-72
2023/01/15 05:13:53;;;;;;;14.55;2.85;;;6.30;99.90;;;;;;4968748;28;20045;-73
2023/01/15 05:16:25;;;;;;;12.38;2.85;;;6.30;99.90;;;;;;4984314;28;20119;-73
2023/01/15 05:18:53;;;;;;;12.63;2.95;;;6.30;99.90;;;;;;4969857;28;20520;-73
2023/01/15 05:21:25;;;;;;;10.85;2.72;;;6.30;99.90;;;;;;4984304;28;20147;-73
2023/01/15 05:23:52;;;;;;;12.93;2.55;;;6.30;99.90;;;;;;4985180;28;20061;-72
2023/01/15 05:26:20;;;;;;;14.82;2.85;;;6.30;99.90;;;;;;4964215;28;20520;-73
2023/01/15 05:28:46;;;;;;;14.25;2.92;;;6.30;99.90;;;;;;5000364;28;20042;-75
2023/01/15 05:31:14;;;;;;;14.25;3.10;;;6.20;99.90;;;;;;4981501;28;20076;-74
2023/01/15 05:33:41;;;;;;;14.75;2.67;;;6.30;99.90;;;;;;4971045;28;20046;-74
2023/01/15 05:36:10;;;;;;;11.70;2.85;;;6.20;99.90;;;;;;4979901;28;20042;-75
2023/01/15 05:38:36;;;;;;;12.82;2.33;;;6.20;99.90;;;;;;4986901;28;20053;-75
2023/01/15 05:41:47;;;;;;;14.70;3.50;;;6.20;99.90;;;;;;4971912;28;20051;-75
2023/01/15 05:43:54;;;;;;;16.05;3.00;;;6.20;99.90;;;;;;4987274;28;20042;-72
2023/01/15 05:46:20;;;;;;;10.18;2.25;;;6.10;99.90;;;;;;4988435;28;20046;-73
2023/01/15 05:48:46;;;;;;;11.18;2.85;;;6.10;99.90;;;;;;4987069;28;20497;-72
2023/01/15 05:51:12;;;;;;;15.73;3.17;;;6.10;99.90;;;;;;4987714;28;20042;-73
2023/01/15 05:53:37;;;;;;;11.93;2.85;;;6.10;99.90;;;;;;4945263;28;20038;-74
2023/01/15 05:56:04;;;;;;;13.32;2.65;;;6.10;99.90;;;;;;4970560;28;20120;-73
2023/01/15 05:58:31;;;;;;;16.40;2.58;;;6.00;99.90;;;;;;4972647;28;20133;-73
2023/01/15 06:00:57;;;;;;;12.90;2.47;;;6.00;99.90;;;;;;4990050;28;20053;-74
2023/01/15 06:03:23;;;;;;;12.55;3.03;;;6.00;99.90;;;;;;4972419;28;20077;-73
2023/01/15 06:05:53;;;;;;;12.90;2.60;;;6.00;99.90;;;;;;4988512;28;20527;-73
2023/01/15 06:08:19;;;;;;;13.60;2.65;;;6.00;99.90;;;;;;4982782;28;20570;-74
2023/01/15 06:10:46;;;;;;;11.88;3.28;;;6.00;99.90;;;;;;4974230;28;20057;-73
2023/01/15 06:13:12;;;;;;;11.80;3.13;;;6.00;99.90;;;;;;4970285;28;20480;-72
2023/01/15 06:15:38;;;;;;;13.18;2.75;;;6.00;99.90;;;;;;4971746;28;20046;-73
2023/01/15 06:18:05;;;;;;;11.77;2.58;;;6.00;99.90;;;;;;4988196;28;20054;-74
2023/01/15 06:20:31;;;;;;;12.60;2.83;;;5.90;99.90;;;;;;4968341;28;20085;-71
2023/01/15 06:22:57;;;;;;;15.65;3.08;;;5.90;99.90;;;;;;4956311;28;20081;-76
2023/01/15 06:25:22;;;;;;;15.23;2.90;;;5.90;99.90;;;;;;4955394;28;20509;-73
2023/01/15 06:27:48;;;;;;;13.73;2.47;;;5.90;99.90;;;;;;4954432;28;20141;-74
2023/01/15 06:30:14;;;;;;;14.18;2.40;;;5.90;99.90;;;;;;4954407;28;20203;-73
2023/01/15 06:32:40;;;;;;;11.35;2.60;;;6.00;99.90;;;;;;4986075;28;20041;-75
2023/01/15 06:35:06;;;;;;;14.18;3.00;;;6.00;99.90;;;;;;4987161;28;20050;-74
2023/01/15 06:37:32;;;;;;;15.15;3.30;;;5.90;99.90;;;;;;4988454;28;20449;-74
2023/01/15 06:39:58;;;;;;;15.18;2.78;;;5.90;99.90;;;;;;4991179;28;20053;-74
2023/01/15 06:47:55;;;;;;;15.00;3.28;;;6.00;99.90;;;;;;4987987;28;20330;-73
2023/01/15 06:50:22;;;;;;;11.65;2.40;;;5.90;99.90;;;;;;4968731;28;20508;-74
2023/01/15 06:52:47;;;;;;;11.38;2.50;;;5.80;99.90;;;;;;4935018;28;20047;-73
2023/01/15 06:55:13;;;;;;;12.90;3.05;;;5.80;99.90;;;;;;4972078;28;20081;-72
2023/01/15 06:57:40;;;;;;;15.15;2.58;;;5.80;99.90;;;;;;4987494;28;20378;-72
2023/01/15 07:00:07;;;;;;;14.82;2.70;;;5.80;99.90;;;;;;4970390;28;20050;-72
2023/01/15 07:02:33;;;;;;;12.02;2.45;;;5.70;99.90;;;;;;4965911;28;20062;-72
2023/01/15 07:04:59;;;;;;;12.45;2.40;;;5.70;99.90;;;;;;4963927;28;20057;-72
2023/01/15 07:07:27;;;;;;;11.57;2.70;;;5.70;99.90;;;;;;4962048;28;20050;-72
2023/01/15 07:09:53;;;;;;;12.45;2.95;;;5.70;99.90;;;;;;4964859;28;20058;-71
2023/01/15 07:12:19;;;;;;;14.18;2.58;;;5.60;99.90;;;;;;4968645;28;21000;-72
2023/01/15 07:14:45;;;;;;;10.98;2.67;;;5.60;99.90;;;;;;4966943;28;20076;-71
2023/01/15 07:17:12;;;;;;;14.52;3.33;;;5.50;99.90;;;;;;4964609;28;20863;-72
2023/01/15 07:19:38;;;;;;;10.60;2.67;;;5.50;99.90;;;;;;4978925;28;20038;-73
2023/01/15 07:22:05;;;;;;;13.40;2.42;;;5.50;99.90;;;;;;4977757;28;20104;-74
2023/01/15 07:24:31;;;;;;;14.10;2.42;;;5.50;99.90;;;;;;4964124;28;20053;-74
2023/01/15 07:26:57;;;;;;;10.55;2.42;;;5.50;99.90;;;;;;4962837;28;20046;-74
2023/01/15 07:29:23;;;;;;;7.88;2.17;;;5.50;99.90;;;;;;4982698;28;20053;-75
2023/01/15 07:31:50;;;;;;;9.95;2.10;;;5.50;99.90;;;;;;4982734;28;20034;-74
2023/01/15 07:34:15;;;;;;;11.05;2.10;;;5.60;99.90;;;;;;4964887;28;20085;-74
2023/01/15 07:36:41;;;;;;;9.10;2.15;;;5.50;99.90;;;;;;4979878;28;20073;-74
2023/01/15 07:39:09;;;;;;;11.40;2.47;;;5.50;99.90;;;;;;4966038;28;20133;-76
2023/01/15 07:50:02;;;;;;;10.27;2.70;;;5.60;99.90;;;;;;4982958;28;20050;-75
2023/01/15 07:52:28;;;;;;;9.25;2.08;;;5.60;99.90;;;;;;4983996;28;20100;-73
2023/01/15 07:54:54;;;;;;;10.57;1.90;;;5.60;99.90;;;;;;4982745;28;21243;-75
2023/01/15 07:57:21;;;;;;;11.73;2.22;;;5.60;99.90;;;;;;4966822;28;20114;-74
2023/01/15 07:59:48;;;;;;;11.10;2.22;;;5.60;99.90;;;;;;4967393;28;20050;-74
2023/01/15 08:02:14;;;;;;;8.98;1.95;;;5.50;99.90;;;;;;4964257;28;20057;-72
2023/01/15 08:04:40;;;;;;;10.38;1.73;;;5.50;99.90;;;;;;4953032;28;20038;-76
2023/01/15 08:07:07;;;;;;;10.30;2.15;;;5.50;99.90;;;;;;4962423;28;20086;-74
2023/01/15 08:09:33;;;;;;;9.70;2.13;;;5.50;99.90;;;;;;4976773;28;20386;-74
2023/01/15 08:17:32;;;;;;;11.63;2.00;;;5.50;99.90;;;;;;4980573;28;20125;-76
2023/01/15 08:19:58;;;;;;;10.48;2.50;;;5.50;99.90;;;;;;4966826;28;20161;-73
2023/01/15 08:22:23;;;;;;;10.30;2.10;;;5.50;99.90;;;;;;4967885;28;20565;-74
2023/01/15 08:24:49;;;;;;;9.30;2.03;;;5.50;99.90;;;;;;4954263;28;20101;-74
2023/01/15 08:27:15;;;;;;;10.85;1.92;;;5.50;99.90;;;;;;4984019;28;20118;-74
2023/01/15 08:29:41;;;;;;;9.88;2.00;;;5.50;99.90;;;;;;4967841;28;20038;-73
2023/01/15 08:32:07;;;;;;;10.27;2.38;;;5.60;99.90;;;;;;4951645;28;20072;-74
2023/01/15 08:34:33;;;;;;;10.18;2.22;;;5.60;99.90;;;;;;4977587;28;20144;-74
2023/01/15 08:36:59;;;;;;;12.00;2.42;;;5.60;99.90;;;;;;4950749;28;20706;-75
2023/01/15 08:39:26;;;;;;;12.30;2.25;;;5.70;99.90;;;;;;4962061;28;20270;-74
2023/01/15 08:41:52;;;;;;;11.25;2.13;;;5.80;99.90;;;;;;4964551;28;20404;-74
2023/01/15 08:44:20;;;;;;;10.00;1.77;;;5.90;99.90;;;;;;4982571;28;20069;-74
2023/01/15 08:46:47;;;;;;;10.80;2.22;;;5.90;99.90;;;;;;4982502;28;20050;-77
2023/01/15 08:49:13;;;;;;;8.65;1.92;;;6.00;99.90;;;;;;4982860;28;20053;-76
2023/01/15 08:51:39;;;;;;;8.25;1.95;;;6.00;99.90;;;;;;4967401;28;20046;-74
2023/01/15 08:54:05;;;;;;;11.40;2.33;;;6.00;99.90;;;;;;4980795;28;20058;-74
2023/01/15 08:56:30;;;;;;;8.02;1.80;;;6.00;99.90;;;;;;4952957;28;20046;-76
2023/01/15 08:58:56;;;;;;;12.30;2.65;;;6.10;99.90;;;;;;4963485;28;20061;-74
2023/01/15 09:01:22;;;;;;;11.80;2.50;;;6.10;99.90;;;;;;4952671;28;20117;-73
2023/01/15 09:03:48;;;;;;;11.45;2.55;;;6.00;99.90;;;;;;4966019;28;20107;-74
2023/01/15 09:06:14;;;;;;;10.13;2.15;;;5.80;99.90;;;;;;4940884;28;20054;-74
2023/01/15 09:08:40;;;;;;;12.40;2.25;;;5.70;99.90;;;;;;4984770;28;20535;-72
2023/01/15 09:11:11;;;;;;;10.65;2.28;;;5.70;99.90;;;;;;4968464;28;20058;-71
2023/01/15 09:13:37;;;;;;;8.50;1.88;;;5.70;99.90;;;;;;4982820;28;20445;-75
2023/01/15 09:16:04;;;;;;;8.23;1.85;;;5.60;99.90;;;;;;4981995;28;20065;-74
2023/01/15 09:18:31;;;;;;;11.48;2.60;;;5.50;99.90;;;;;;4963334;28;20061;-73
2023/01/15 09:20:58;;;;;;;7.05;2.03;;;5.40;99.90;;;;;;4958074;28;20790;-75
2023/01/15 09:23:24;;;;;;;8.40;1.73;;;5.30;99.90;;;;;;4960958;28;20212;-74
2023/01/15 09:26:42;;;;;;;8.93;1.40;;;5.10;99.90;;;;;;4979287;28;20057;-76
2023/01/15 09:29:09;;;;;;;7.63;1.60;;;5.10;99.90;;;;;;4934340;28;20055;-74
2023/01/15 09:31:35;;;;;;;6.75;1.20;;;5.00;99.90;;;;;;4977480;28;20583;-75
2023/01/15 09:34:01;;;;;;;7.65;1.50;;;5.00;99.90;;;;;;4965871;28;20466;-75
2023/01/15 09:36:32;;;;;;;7.60;1.40;;;5.00;99.90;;;;;;4974852;28;20034;-75
2023/01/15 09:38:59;;;;;;;7.55;1.55;;;5.00;99.90;;;;;;4964819;28;20169;-75
2023/01/15 09:44:44;;;;;;;6.40;1.60;;;5.10;99.90;;;;;;4982248;28;20054;-77
2023/01/15 09:47:33;;;;;;;10.85;1.77;;;5.00;99.90;;;;;;4976070;28;20409;-77
2023/01/15 09:50:29;;;;;;;9.07;2.13;;;5.10;99.90;;;;;;4976706;28;20081;-74
2023/01/15 09:53:23;;;;;;;10.70;2.17;;;5.10;99.90;;;;;;4966369;28;20046;-76
2023/01/15 09:55:49;;;;;;;10.52;2.10;;;5.10;99.90;;;;;;4982111;28;20504;-75
2023/01/15 09:58:22;;;;;;;10.90;2.63;;;5.10;99.90;;;;;;4963624;28;20042;-75
2023/01/15 10:00:50;;;;;;;9.07;2.03;;;5.20;99.90;;;;;;4977190;28;20042;-74
2023/01/15 10:03:37;;;;;;;12.73;2.13;;;5.30;99.90;;;;;;4980871;28;20501;-74
2023/01/15 10:06:05;;;;;;;12.43;2.40;;;5.30;99.90;;;;;;4980106;28;20050;-74
2023/01/15 10:08:41;;;;;;;13.75;2.53;;;5.30;99.90;;;;;;4964327;28;20133;-75
2023/01/15 10:11:16;;;;;;;11.40;2.30;;;5.40;99.90;;;;;;4977245;28;20126;-73
2023/01/15 10:14:10;;;;;;;13.50;2.63;;;5.30;99.90;;;;;;4979509;28;20520;-74
2023/01/15 10:16:36;;;;;;;12.63;2.75;;;5.30;99.90;;;;;;4978842;28;22151;-73
2023/01/15 10:19:02;;;;;;;11.82;2.88;;;5.30;99.90;;;;;;4965822;28;20050;-74
2023/01/15 10:22:03;;;;;;;10.57;2.30;;;5.40;99.90;;;;;;4983744;28;20042;-74
2023/01/15 10:24:39;;;;;;;13.65;2.80;;;5.50;99.90;;;;;;4979534;28;20058;-74
2023/01/15 10:27:26;;;;;;;14.98;3.15;;;5.50;99.90;;;;;;4954714;28;20046;-73
2023/01/15 10:29:59;;;;;;;9.65;2.08;;;5.50;99.90;;;;;;4980140;28;20053;-74
2023/01/15 10:32:43;;;;;;;15.25;2.78;;;5.60;99.90;;;;;;4983802;28;20077;-76
2023/01/15 10:35:56;;;;;;;12.43;2.13;;;5.50;99.90;;;;;;4963870;28;20055;-75
2023/01/15 10:38:44;;;;;;;12.23;2.20;;;5.50;99.90;;;;;;4920298;28;20075;-78
2023/01/15 10:41:45;;;;;;;12.65;2.10;;;5.40;99.90;;;;;;4981671;28;20530;-74
2023/01/15 10:44:11;;;;;;;8.68;1.95;;;5.20;99.90;;;;;;4979774;28;20375;-73
2023/01/15 10:46:39;;;;;;;11.63;2.10;;;5.20;99.90;;;;;;4982564;28;20053;-76
2023/01/15 10:49:31;;;;;;;15.77;2.58;;;5.20;99.90;;;;;;4967831;28;20058;-76
2023/01/15 10:52:21;;;;;;;12.02;2.45;;;5.20;99.90;;;;;;4973976;28;20054;-73
2023/01/15 10:54:54;;;;;;;13.60;2.42;;;5.20;99.90;;;;;;4981710;28;20429;-73
2023/01/15 10:57:44;;;;;;;16.73;2.88;;;5.30;99.90;;;;;;4982829;28;20043;-73
2023/01/15 11:00:11;;;;;;;14.50;2.42;;;5.30;99.90;;;;;;4936415;28;20200;-74
2023/01/15 11:02:48;;;;;;;17.02;3.75;;;5.40;99.90;;;;;;4963747;28;20049;-74
2023/01/15 11:05:18;;;;;;;12.88;2.33;;;5.50;99.90;;;;;;4992635;28;20391;-78
2023/01/15 11:07:47;;;;;;;12.35;2.47;;;5.60;99.90;;;;;;4965095;28;20053;-76
2023/01/15 11:10:17;;;;;;;17.45;3.10;;;5.70;99.90;;;;;;4977426;28;20076;-73
2023/01/15 11:21:26;;;;;;;16.65;2.65;;;5.80;99.90;;;;;;4984338;28;20057;-76
2023/01/15 11:23:54;;;;;;;12.38;2.72;;;5.90;99.90;;;;;;4983223;28;20045;-75
2023/01/15 11:26:27;;;;;;;14.95;3.13;;;6.10;99.90;;;;;;4968054;28;20066;-77
2023/01/15 11:28:55;;;;;;;16.70;2.50;;;6.20;99.90;;;;;;4984018;28;20100;-74
2023/01/15 11:31:21;;;;;;;15.88;2.92;;;6.30;99.90;;;;;;4978972;28;20056;-72
2023/01/15 11:33:58;;;;;;;9.73;2.10;;;6.40;99.90;;;;;;4970687;28;20037;-73
2023/01/15 11:36:25;;;;;;;11.38;3.10;;;6.50;99.90;;;;;;4983683;28;20045;-73
2023/01/15 11:38:52;;;;;;;11.55;2.33;;;6.60;99.90;;;;;;4968147;28;20038;-72
2023/01/15 11:52:53;;;;;;;11.18;2.45;;;6.80;99.90;;;;;;4979292;28;20054;-74
2023/01/15 11:55:22;;;;;;;12.75;2.40;;;6.80;99.90;;;;;;4983534;28;20049;-74
2023/01/15 11:57:49;;;;;;;12.32;2.75;;;6.80;99.90;;;;;;4983152;28;20401;-76
2023/01/15 12:00:33;;;;;;;10.73;2.15;;;6.80;99.90;;;;;;4950890;28;20049;-75
2023/01/15 12:03:04;;;;;;;14.68;2.42;;;6.80;99.90;;;;;;4981538;28;20042;-76
2023/01/15 12:05:36;;;;;;;10.55;2.42;;;6.80;99.90;;;;;;4965296;28;20520;-77
2023/01/15 12:08:30;;;;;;;11.48;2.58;;;6.90;99.90;;;;;;4983539;28;20544;-74
2023/01/15 12:11:05;;;;;;;11.90;2.60;;;6.90;99.90;;;;;;4965478;28;20546;-75
2023/01/15 12:13:51;;;;;;;11.93;3.00;;;6.90;99.90;;;;;;4966211;28;20466;-74
2023/01/15 12:16:40;;;;;;;13.60;2.50;;;6.90;99.90;;;;;;4982819;28;20136;-76
2023/01/15 12:19:30;;;;;;;12.05;2.50;;;6.90;99.90;;;;;;4967842;28;20142;-70
2023/01/15 12:22:01;;;;;;;11.52;2.22;;;6.90;99.90;;;;;;4985383;28;20084;-72
2023/01/15 12:24:51;;;;;;;9.80;1.90;;;6.90;99.90;;;;;;4985705;28;20064;-72
2023/01/15 12:27:28;;;;;;;11.57;3.13;;;6.90;99.90;;;;;;4986937;28;20054;-71
2023/01/15 12:30:16;;;;;;;14.18;2.60;;;6.90;99.90;;;;;;4984803;28;20060;-70
2023/01/15 12:33:21;;;;;;;11.68;2.67;;;7.00;99.90;;;;;;4986825;28;20136;-75
2023/01/15 12:36:27;;;;;;;11.18;2.15;;;7.00;99.90;;;;;;4960391;28;20050;-74
2023/01/15 12:39:19;;;;;;;10.43;2.00;;;7.00;99.90;;;;;;4967311;28;20149;-73
2023/01/15 12:45:03;;;;;;;10.20;2.20;;;7.20;99.90;;;;;;4988560;28;20396;-75
2023/01/15 12:47:53;;;;;;;10.50;2.33;;;7.30;99.90;;;;;;4985499;28;20046;-73
2023/01/15 12:50:37;;;;;;;11.63;2.17;;;7.40;99.90;;;;;;4985132;28;20521;-76
2023/01/15 12:53:16;;;;;;;13.50;2.78;;;7.50;99.90;;;;;;4971047;28;20481;-74
2023/01/15 12:56:08;;;;;;;9.45;2.08;;;7.50;99.90;;;;;;4984028;28;20069;-77
2023/01/15 12:58:49;;;;;;;13.88;2.45;;;7.60;99.90;;;;;;4986565;28;20050;-71
2023/01/15 13:01:23;;;;;;;10.98;2.08;;;7.50;99.90;;;;;;4987026;28;20046;-71
2023/01/15 13:04:05;;;;;;;13.15;2.35;;;7.50;99.90;;;;;;4968777;28;20056;-75
2023/01/15 13:06:32;;;;;;;12.45;2.33;;;7.50;99.90;;;;;;4971853;28;20373;-76
2023/01/15 13:09:15;;;;;;;14.98;3.13;;;7.50;99.90;;;;;;4973776;28;20049;-76
2023/01/15 13:11:41;;;;;;;12.02;2.28;;;7.50;99.90;;;;;;4969483;28;20439;-75
2023/01/15 13:14:18;;;;;;;10.55;2.65;;;7.50;99.90;;;;;;4955557;28;20058;-74
2023/01/15 13:17:11;;;;;;;10.55;2.05;;;7.50;99.90;;;;;;4982535;28;20058;-76
2023/01/15 13:20:02;;;;;;;10.50;2.33;;;7.60;99.90;;;;;;4983137;28;20039;-72
2023/01/15 13:22:31;;;;;;;12.23;2.55;;;7.60;99.90;;;;;;4966170;28;20420;-74
2023/01/15 13:25:05;;;;;;;12.55;2.50;;;7.60;99.90;;;;;;4965121;28;20042;-76
2023/01/15 13:27:57;;;;;;;12.45;2.42;;;7.70;99.90;;;;;;4983402;28;20501;-72
2023/01/15 13:30:50;;;;;;;12.68;2.45;;;7.60;99.90;;;;;;4982151;28;20046;-75
2023/01/15 13:33:25;;;;;;;15.90;2.65;;;7.60;99.90;;;;;;4982726;28;20467;-76
2023/01/15 13:36:02;;;;;;;11.52;2.53;;;7.60;99.90;;;;;;4966336;28;20046;-76
2023/01/15 13:38:33;;;;;;;12.05;2.20;;;7.50;99.90;;;;;;4980502;28;20050;-78
2023/01/15 13:40:58;;;;;;;13.70;2.92;;;7.40;99.90;;;;;;4981131;28;20163;-77
2023/01/15 13:43:42;;;;;;;18.38;3.17;;;7.20;99.90;;;;;;4965138;28;20132;-77
2023/01/15 13:46:18;;;;;;;13.18;3.15;;;7.10;99.90;;;;;;4981373;28;20101;-78
2023/01/15 13:48:48;;;;;;;18.20;3.30;;;7.00;99.90;;;;;;4967020;28;20054;-73
2023/01/15 13:51:42;;;;;;;9.98;1.70;;;6.80;99.90;;;;;;4983603;28;20054;-72
2023/01/15 13:54:27;;;;;;;10.95;2.85;;;6.50;99.90;;;;;;4957008;28;20042;-74
2023/01/15 13:56:53;;;;;;;11.48;2.53;;;6.10;99.90;;;;;;4968160;28;20125;-76
2023/01/15 13:59:40;;;;;;;14.00;2.92;;;5.90;99.90;;;;;;4952608;28;20110;-79
2023/01/15 14:02:28;;;;;;;12.63;2.20;;;5.80;99.90;;;;;;4970263;28;20132;-76
2023/01/15 14:04:55;;;;;;;6.45;1.00;;;5.70;99.90;;;;;;4984708;28;20053;-80
2023/01/15 14:07:36;;;;;;;7.93;1.38;;;5.60;99.90;;;;;;4982729;28;20694;-76
2023/01/15 14:10:18;;;;;;;6.63;1.20;;;5.50;99.90;;;;;;4985602;28;20046;-77